Packwood, WA (98361)

4:14 PM PST on February 06, 2016 (GMT -0800)
nisqually park | | Change Station
CLOSE
Current Station
Personal Weather Station
Location: Ashford, WA
Elevation: 2021 ft
Nearby Weather Stations

Elev 2021 ft 46.74 °N, 121.93 °W | Updated 17 seconds ago

Partly Cloudy
Partly Cloudy
36.4 °F
Feels Like 36 °F
N
0.0
Wind Variable Wind from NNE

Today
High -- | Low -- °F
--% Chance of Precip.
Yesterday
High -- | Low -- °F
Precip. -- in
Pressure 30.44 in
Visibility 10.0 miles
Clouds Clear
Windchill 36 °F
Dew Point 36 °F
Humidity 99%
Rainfall 0.22 in
Snow Depth Not available.
7:24 AM 5:17 PM
Waning Crescent, 3% visible
METAR KPLU 062355Z AUTO 00000KT 10SM CLR 09/02 A3044 RMK AO2
Pressure 30.44 in
Visibility 10.0 miles
Clouds Clear
Windchill 36 °F
Dew Point 36 °F
Humidity 99%
Rainfall 0.22 in
Snow Depth Not available.
7:24 AM 5:17 PM
Waning Crescent, 3% visible
METAR KPLU 062355Z AUTO 00000KT 10SM CLR 09/02 A3044 RMK AO2

10-Day Weather Forecast

Almanac

Astronomy

Feb. 06, 2016 Rise Set
Actual Time
Civil Twilight
Nautical Twilight
Astronomical Twilight
Moon
Length of Visible Light
Length of Day
Tomorrow will be .
, % of the Moon is Illuminated

Today's Extremes

State Highs State Lows

Community

WunderPhotos

Upload Photos

1,891,105 photos uploaded!

WunderBlog® & News

Nearby

Air Quality

  Air Quality AQ Index Pollutant
Not available.

Snow Depth

Station Depth Elevation

Earthquake Activity

City Distance Mag. Time & Date
Minimum magnitude displayed is 2.5.

Coastal Water Temperatures

Place Temperature

Stations

Nearby Weather Stations

Station Location Temp. Windchill Dew Point Humidity Wind Precip. Elev Updated Type
                   

Watches & Warnings

There are currently no watches in effect.